Flight Track Log - Related Links

Times and Time Zones

All times are in EDT time to prevent confusion due to time zone crossing. See the N498QS flight status page for this flight to view local times or setup timezone preferences in your user account.

Time Position Orientation Groundspeed Altitude Reporting Facility
EDT Latitude Longitude Course Direction KTS MPH feet Rate Location/Type
Thu 02:31:24 PM 43.6833 -79.6333 313° West 130 150 2,300  Level Toronto Center
Thu 02:32:24 PM 43.7167 -79.6833 313° West 140 161 3,900 1,500 Climbing Toronto Center
Thu 02:33:24 PM 43.7667 -79.6333 36° Northeast 260 299 5,300 1,500 Climbing Toronto Center
Thu 02:34:24 PM 43.7833 -79.5167 79° East 310 357 6,900 850 Climbing Toronto Center
Thu 02:35:24 PM 43.7667 -79.4000 101° East 320 368 7,000 1,550 Climbing Toronto Center
Thu 02:36:24 PM 43.7667 -79.2833 90° East 320 368 10,000 2,550 Climbing Toronto Center
Thu 02:37:24 PM 43.7667 -79.1500 90° East 350 403 12,100 2,250 Climbing Toronto Center
Thu 02:38:24 PM 43.8000 -79.0167 71° East 380 437 14,500 2,400 Climbing Toronto Center
Thu 02:39:24 PM 43.8500 -78.8500 67° East 400 460 16,900 2,200 Climbing Toronto Center
Thu 02:40:24 PM 43.8833 -78.7000 73° East 420 483 18,900 2,050 Climbing Toronto Center
Thu 02:41:24 PM 43.9333 -78.5500 65° Northeast 440 506 21,000 1,950 Climbing Toronto Center
Thu 02:42:24 PM 43.9500 -78.3833 82° East 460 529 22,800 1,700 Climbing Toronto Center
Thu 02:43:24 PM 44.0000 -78.2000 69° East 470 541 24,400 1,700 Climbing Toronto Center
Thu 02:45:24 PM 44.1333 -77.8667 61° Northeast 490 564 27,900 1,600 Climbing Toronto Center
Thu 02:46:24 PM 44.2000 -77.6833 63° Northeast 500 575 29,200 1,550 Climbing Toronto Center
Thu 02:47:24 PM 44.2667 -77.5167 61° Northeast 510 587 31,000 1,850 Climbing Toronto Center
Thu 02:48:24 PM 44.3167 -77.3500 67° East 500 575 32,900 1,550 Climbing Toronto Center
Thu 02:49:24 PM 44.3833 -77.1667 63° Northeast 510 587 34,100 1,150 Climbing Toronto Center
Thu 02:50:24 PM 44.4500 -77.0000 61° Northeast 510 587 35,200 1,200 Climbing Toronto Center
Thu 02:51:24 PM 44.5333 -76.8000 60° Northeast 520 598 36,500 1,250 Climbing Toronto Center
Thu 02:52:24 PM 44.5833 -76.6333 67° East 520 598 37,700 1,250 Climbing Toronto Center
Thu 02:53:24 PM 44.6500 -76.4500 63° Northeast 510 587 39,000 1,250 Climbing Toronto Center
Thu 02:54:24 PM 44.7167 -76.2833 61° Northeast 500 575 40,200 950 Climbing Toronto Center
Thu 02:55:24 PM 44.7833 -76.1333 58° Northeast 490 564 40,900 400 Climbing Toronto Center
Thu 02:56:24 PM 44.8333 -75.9333 71° East 490 564 41,000 50 Climbing Toronto Center
Thu 02:57:24 PM 44.9167 -75.8000 49° Northeast 480 552 41,000  Level Toronto Center
Thu 02:58:24 PM 45.0333 -75.6667 39° Northeast 480 552 41,000  Level Toronto Center
Thu 02:59:24 PM 45.1000 -75.5500 51° Northeast 480 552 41,000  Level Toronto Center
Thu 03:00:24 PM 45.2167 -75.4167 39° Northeast 480 552 41,000  Level Toronto Center
Thu 03:01:24 PM 45.3167 -75.3000 39° Northeast 480 552 41,000  Level Toronto Center
Thu 03:02:24 PM 45.4167 -75.1667 43° Northeast 480 552 41,000  Level Toronto Center
Thu 03:03:24 PM 45.5000 -75.0333 48° Northeast 480 552 41,000  Level Toronto Center
Thu 03:04:24 PM 45.6167 -74.8833 42° Northeast 480 552 41,000  Level Toronto Center
Thu 03:05:24 PM 45.7167 -74.7667 39° Northeast 480 552 41,000  Level Toronto Center
Thu 03:06:24 PM 45.8000 -74.6333 48° Northeast 480 552 41,000  Level Toronto Center
Thu 03:07:24 PM 45.9000 -74.5000 43° Northeast 480 552 41,000  Level Toronto Center
Thu 03:08:24 PM 46.0167 -74.3667 38° Northeast 490 564 41,000  Level Toronto Center
Thu 03:09:24 PM 46.1000 -74.2500 44° Northeast 490 564 41,000  Level Toronto Center
Thu 03:10:24 PM 46.2000 -74.1167 43° Northeast 490 564 41,000  Level Toronto Center
Thu 03:11:24 PM 46.3000 -73.9667 46° Northeast 490 564 41,000  Level Toronto Center
Thu 03:12:19 PM 46.4000 -73.8833 30° Northeast 480 552 41,000  Level Montreal Center
Thu 03:13:19 PM 46.5000 -73.7500 43° Northeast 480 552 41,000  Level Montreal Center
Thu 03:14:19 PM 46.5833 -73.6000 51° Northeast 480 552 41,000  Level Montreal Center
Thu 03:15:19 PM 46.6833 -73.4667 42° Northeast 480 552 41,000  Level Montreal Center
Thu 03:16:19 PM 46.7833 -73.3167 46° Northeast 490 564 41,000  Level Montreal Center
Thu 03:17:19 PM 46.8833 -73.2000 39° Northeast 490 564 41,000  Level Montreal Center
Thu 03:18:19 PM 46.9833 -73.0333 49° Northeast 490 564 41,000  Level Montreal Center
Thu 03:19:19 PM 47.0833 -72.9167 38° Northeast 480 552 41,000  Level Montreal Center
Thu 03:20:19 PM 47.1667 -72.7833 47° Northeast 480 552 41,000  Level Montreal Center
Thu 03:21:19 PM 47.2667 -72.6333 45° Northeast 480 552 41,000  Level Montreal Center
Thu 03:22:19 PM 47.3667 -72.5000 42° Northeast 480 552 41,000  Level Montreal Center
Thu 03:23:19 PM 47.4667 -72.3667 42° Northeast 480 552 41,000  Level Montreal Center
Thu 03:24:19 PM 47.5500 -72.2167 51° Northeast 480 552 41,000  Level Montreal Center
Thu 03:25:19 PM 47.6500 -72.0833 42° Northeast 480 552 41,000  Level Montreal Center
Thu 03:26:19 PM 47.7500 -71.9500 42° Northeast 480 552 41,000  Level Montreal Center
Thu 03:27:19 PM 47.8333 -71.7833 53° Northeast 480 552 41,000  Level Montreal Center
Thu 03:28:19 PM 47.9333 -71.6500 42° Northeast 480 552 41,000  Level Montreal Center
Thu 03:29:19 PM 48.0167 -71.5167 47° Northeast 480 552 41,000  Level Montreal Center
Thu 03:30:19 PM 48.1167 -71.3667 45° Northeast 480 552 41,000  Level Montreal Center
Thu 03:31:19 PM 48.2000 -71.2333 47° Northeast 480 552 41,000  Level Montreal Center
Thu 03:32:19 PM 48.3000 -71.0833 45° Northeast 480 552 41,000  Level Montreal Center
Thu 03:33:19 PM 48.4000 -70.9333 45° Northeast 480 552 41,000  Level Montreal Center
Thu 03:34:19 PM 48.4833 -70.7833 50° Northeast 480 552 41,000  Level Montreal Center
Thu 03:35:19 PM 48.5833 -70.6500 41° Northeast 480 552 41,000  Level Montreal Center
Thu 03:36:19 PM 48.6833 -70.5167 41° Northeast 480 552 41,000  Level Montreal Center
Thu 03:37:19 PM 48.7667 -70.3500 53° Northeast 480 552 41,000  Level Montreal Center
Thu 03:38:19 PM 48.8667 -70.2167 41° Northeast 480 552 41,000  Level Montreal Center
Thu 03:39:19 PM 48.9667 -70.0500 48° Northeast 480 552 41,000  Level Montreal Center
Thu 03:40:19 PM 49.0500 -69.9000 50° Northeast 470 541 41,000  Level Montreal Center
Thu 03:41:19 PM 49.1333 -69.7667 46° Northeast 480 552 41,000  Level Montreal Center
Thu 03:42:19 PM 49.2167 -69.6333 46° Northeast 480 552 41,000  Level Montreal Center
Thu 03:43:19 PM 49.3167 -69.4833 44° Northeast 470 541 41,000  Level Montreal Center
Thu 03:44:19 PM 49.4000 -69.3167 52° Northeast 470 541 41,000  Level Montreal Center
Thu 03:45:19 PM 49.5000 -69.1833 41° Northeast 470 541 41,000  Level Montreal Center
Thu 03:46:19 PM 49.6000 -69.0333 44° Northeast 470 541 41,000  Level Montreal Center
Thu 03:47:56 PM 49.7500 -68.8000 45° Northeast 480 552 41,000  Level Moncton Center
Thu 03:48:19 PM 49.7667 -68.7167 73° East 480 552 41,000  Level Montreal Center
Thu 03:49:19 PM 49.8667 -68.5667 44° Northeast 480 552 41,000  Level Montreal Center
Thu 03:50:19 PM 49.9500 -68.4333 46° Northeast 480 552 41,000  Level Montreal Center
Thu 03:51:19 PM 50.0500 -68.2500 50° Northeast 480 552 41,000  Level Montreal Center
Thu 03:52:19 PM 50.1333 -68.1000 49° Northeast 480 552 41,000  Level Montreal Center
Thu 03:53:19 PM 50.2333 -67.9333 47° Northeast 480 552 41,000  Level Montreal Center
Thu 03:54:19 PM 50.3167 -67.7833 49° Northeast 480 552 41,000  Level Montreal Center
Thu 03:55:19 PM 50.4000 -67.6333 49° Northeast 480 552 41,000  Level Montreal Center
Thu 03:56:19 PM 50.5000 -67.4833 44° Northeast 480 552 41,000  Level Montreal Center
Thu 03:57:19 PM 50.5667 -67.3167 58° Northeast 480 552 41,000  Level Montreal Center
Thu 03:58:19 PM 50.6833 -67.1667 39° Northeast 480 552 41,000  Level Montreal Center
Thu 03:59:19 PM 50.7667 -67.0167 49° Northeast 480 552 41,000  Level Montreal Center
Thu 04:00:19 PM 50.8500 -66.8333 54° Northeast 480 552 41,000  Level Montreal Center
Thu 04:01:19 PM 50.9500 -66.6833 43° Northeast 480 552 41,000  Level Montreal Center
Thu 04:02:56 PM 51.0833 -66.4500 48° Northeast 490 564 41,000  Level Moncton Center
Thu 04:03:19 PM 51.1167 -66.3500 62° Northeast 480 552 41,000  Level Montreal Center
Thu 04:04:19 PM 51.2000 -66.2000 48° Northeast 480 552 41,000  Level Montreal Center
Thu 04:05:19 PM 51.3000 -66.0333 46° Northeast 480 552 41,000  Level Montreal Center
Thu 04:06:19 PM 51.3833 -65.8500 54° Northeast 480 552 41,000  Level Montreal Center
Thu 04:07:19 PM 51.4500 -65.7000 54° Northeast 480 552 41,000  Level Montreal Center
Thu 04:08:19 PM 51.5500 -65.5500 43° Northeast 480 552 41,000  Level Montreal Center
Thu 04:08:56 PM 51.6167 -65.4667 38° Northeast 490 564 41,000  Level Moncton Center
Thu 04:09:56 PM 51.7000 -65.3167 48° Northeast 480 552 41,000  Level Moncton Center
Thu 04:10:56 PM 51.7833 -65.1500 51° Northeast 480 552 41,000  Level Moncton Center
Thu 04:11:56 PM 51.8667 -65.0000 48° Northeast 490 564 41,000  Level Moncton Center
Thu 04:12:56 PM 51.9667 -64.8333 46° Northeast 480 552 41,000  Level Moncton Center
Thu 04:13:56 PM 52.0500 -64.6500 53° Northeast 490 564 41,000  Level Moncton Center
Thu 04:14:56 PM 52.1333 -64.4833 51° Northeast 490 564 41,000  Level Moncton Center
Thu 04:15:56 PM 52.2167 -64.3167 51° Northeast 490 564 41,000  Level Moncton Center
Thu 04:17:05 PM 52.3333 -64.1333 44° Northeast 490 564 41,000  Level Gander Center
Thu 04:18:05 PM 52.4167 -63.9667 51° Northeast 490 564 41,000  Level Gander Center
Thu 04:19:05 PM 52.5000 -63.7833 53° Northeast 490 564 41,000  Level Gander Center
Thu 04:20:05 PM 52.5833 -63.6167 51° Northeast 490 564 41,000  Level Gander Center
Thu 04:21:05 PM 52.6667 -63.4333 53° Northeast 490 564 41,000  Level Gander Center
Thu 04:22:05 PM 52.7667 -63.2667 45° Northeast 490 564 41,000  Level Gander Center
Thu 04:23:05 PM 52.8500 -63.0833 53° Northeast 490 564 41,000  Level Gander Center
Thu 04:24:05 PM 52.9333 -62.9167 50° Northeast 480 552 41,000  Level Gander Center
Thu 04:25:05 PM 53.0167 -62.7333 53° Northeast 480 552 41,000  Level Gander Center
Thu 04:26:45 PM 53.1500 -62.4500 52° Northeast 490 564 41,000  Level Gander Center
Thu 04:27:05 PM 53.1667 -62.4000 61° Northeast 490 564 41,000  Level Gander Center
Thu 04:28:05 PM 53.2833 -62.2000 46° Northeast 490 564 41,000  Level Gander Center
Thu 04:29:05 PM 53.3500 -62.0333 56° Northeast 490 564 41,000  Level Gander Center
Thu 04:30:05 PM 53.4500 -61.8500 47° Northeast 490 564 41,000  Level Gander Center
Thu 04:31:05 PM 53.5333 -61.6833 50° Northeast 490 564 41,000  Level Gander Center
Thu 04:32:05 PM 53.6167 -61.4833 55° Northeast 490 564 41,000  Level Gander Center
Thu 04:33:05 PM 53.7000 -61.3167 50° Northeast 490 564 41,000  Level Gander Center
Thu 04:34:05 PM 53.7667 -61.1333 58° Northeast 490 564 41,000  Level Gander Center
Thu 04:35:05 PM 53.8667 -60.9500 47° Northeast 490 564 41,000  Level Gander Center
Thu 04:36:05 PM 53.9333 -60.7667 58° Northeast 490 564 41,000  Level Gander Center
Thu 04:37:05 PM 54.0333 -60.5667 50° Northeast 490 564 41,000  Level Gander Center
Thu 04:38:05 PM 54.1000 -60.4000 56° Northeast 490 564 41,000  Level Gander Center
Thu 04:39:05 PM 54.1833 -60.2000 54° Northeast 490 564 41,000  Level Gander Center
Thu 04:40:05 PM 54.2833 -60.0167 47° Northeast 490 564 41,000  Level Gander Center
Thu 04:40:56 PM 54.3333 -59.8667 60° Northeast 490 564 41,000  Level Moncton Center
Thu 04:42:05 PM 54.4333 -59.6500 52° Northeast 490 564 41,000  Level Gander Center
Thu 04:43:05 PM 54.5167 -59.4333 56° Northeast 500 575 41,000  Level Gander Center
Thu 04:43:56 PM 54.5833 -59.2667 54° Northeast 500 575 41,000  Level Moncton Center
Thu 04:44:11 PM 55.5167 -57.0167 54° Northeast 499 574 41,000  Level ETMS Enhanced Traffic Management System
Thu 04:45:05 PM 54.6833 -59.0500 51° Northeast 490 564 41,000  Level Gander Center
Thu 04:46:05 PM 54.7667 -58.8833 49° Northeast 500 575 41,000  Level Gander Center
Thu 04:47:05 PM 54.8333 -58.6667 62° Northeast 500 575 41,000  Level Gander Center
Thu 04:48:05 PM 54.9167 -58.4833 52° Northeast 490 564 41,000  Level Gander Center
Thu 04:49:45 PM 55.0500 -58.1667 54° Northeast 490 564 41,000  Level Gander Center
Thu 04:50:05 PM 55.0833 -58.1000 49° Northeast 490 564 41,000  Level Gander Center
Thu 04:51:05 PM 55.1500 -57.8833 62° Northeast 500 575 41,000  Level Gander Center
Thu 04:52:05 PM 55.2333 -57.7000 51° Northeast 500 575 41,000  Level Gander Center
Thu 04:53:05 PM 55.3167 -57.5000 54° Northeast 500 575 41,000  Level Gander Center
Thu 04:54:05 PM 55.3833 -57.2833 61° Northeast 500 575 41,000  Level Gander Center
Thu 04:55:05 PM 55.4667 -57.1000 51° Northeast 500 575 41,000  Level Gander Center
Thu 04:56:05 PM 55.5500 -56.8833 56° Northeast 500 575 41,000  Level Gander Center
Thu 04:57:05 PM 55.6333 -56.7000 51° Northeast 500 575 41,000  Level Gander Center
Thu 04:58:00 PM 55.5167 -57.0167 54° Northeast 484 557 41,000  Level ETMS Enhanced Traffic Management System
Thu 04:58:05 PM 55.7167 -56.4833 56° Northeast 500 575 41,000  Level Gander Center
Thu 04:59:05 PM 55.7833 -56.2833 54° Northeast 500 575 41,000  Level Gander Center
Thu 05:00:05 PM 55.8667 -56.1000 51° Northeast 500 575 41,000  Level Gander Center
Thu 05:01:05 PM 55.9500 -55.8833 55° Northeast 500 575 41,000  Level Gander Center
Thu 05:02:05 PM 56.0333 -55.6833 53° Northeast 500 575 41,000  Level Gander Center
Thu 05:03:05 PM 56.1000 -55.4667 61° Northeast 500 575 41,000  Level Gander Center
Thu 05:07:00 PM 56.1935 -55.2247 55° Northeast  Level FlightAware Approximate
Thu 05:14:00 PM 56.7082 -53.8480 55° Northeast  Level FlightAware Approximate
Thu 05:15:00 PM 56.7805 -53.6483 56° Northeast  Level FlightAware Approximate
Thu 05:16:00 PM 56.8525 -53.4478 57° Northeast  Level FlightAware Approximate
Thu 05:17:00 PM 56.9241 -53.2465 57° Northeast  Level FlightAware Approximate
Thu 05:18:00 PM 56.9954 -53.0445 57° Northeast  Level FlightAware Approximate
Thu 05:19:00 PM 57.0664 -52.8416 57° Northeast  Level FlightAware Approximate
Thu 05:20:00 PM 57.1370 -52.6381 57° Northeast  Level FlightAware Approximate
Thu 05:21:00 PM 57.2074 -52.4337 58° Northeast  Level FlightAware Approximate
Thu 05:22:00 PM 57.2774 -52.2285 58° Northeast  Level FlightAware Approximate
Thu 05:23:00 PM 57.3470 -52.0226 58° Northeast  Level FlightAware Approximate
Thu 05:24:00 PM 57.4163 -51.8159 58° Northeast  Level FlightAware Approximate
Thu 05:25:00 PM 57.4853 -51.6084 58° Northeast  Level FlightAware Approximate
Thu 05:26:00 PM 57.5540 -51.4001 58° Northeast  Level FlightAware Approximate
Thu 05:27:00 PM 57.6222 -51.1911 59° Northeast  Level FlightAware Approximate
Thu 05:28:00 PM 57.6902 -50.9812 59° Northeast  Level FlightAware Approximate
Thu 05:29:00 PM 57.7578 -50.7706 59° Northeast  Level FlightAware Approximate
Thu 05:30:00 PM 57.8250 -50.5592 59° Northeast  Level FlightAware Approximate
Thu 05:31:00 PM 57.8919 -50.3470 59° Northeast  Level FlightAware Approximate
Thu 05:31:00 PM 58.0000 -50.0000 55° Northeast 492 566 41,000  Level ETMS Enhanced Traffic Management System
Thu 05:32:00 PM 57.9585 -50.1340 59° Northeast  Level FlightAware Approximate
Thu 05:33:00 PM 58.0274 -49.9237 56° Northeast  Level FlightAware Approximate
Thu 05:34:00 PM 58.1009 -49.7181 56° Northeast  Level FlightAware Approximate
Thu 05:35:00 PM 58.1740 -49.5116 56° Northeast  Level FlightAware Approximate
Thu 05:36:00 PM 58.2467 -49.3044 56° Northeast  Level FlightAware Approximate
Thu 05:37:00 PM 58.7639 -47.8327 57° Northeast 492 566 41,000  Level FlightAware Transoceanic
Thu 05:38:00 PM 58.8382 -47.6108 57° Northeast 492 566 41,000  Level FlightAware Transoceanic
Thu 05:39:00 PM 58.9122 -47.3879 57° Northeast 492 566 41,000  Level FlightAware Transoceanic
Thu 05:40:00 PM 58.9858 -47.1641 58° Northeast 492 566 41,000  Level FlightAware Transoceanic
Thu 05:41:00 PM 59.0590 -46.9393 58° Northeast 492 566 41,000  Level FlightAware Transoceanic
Thu 05:42:00 PM 59.1318 -46.7136 58° Northeast 492 566 41,000  Level FlightAware Transoceanic
Thu 05:43:00 PM 59.2042 -46.4869 58° Northeast 492 566 41,000  Level FlightAware Transoceanic
Thu 05:44:00 PM 59.2762 -46.2592 58° Northeast 492 566 41,000  Level FlightAware Transoceanic
Thu 05:45:00 PM 59.3478 -46.0306 59° Northeast 492 566 41,000  Level FlightAware Transoceanic
Thu 05:46:00 PM 59.4190 -45.8010 59° Northeast 492 566 41,000  Level FlightAware Transoceanic
Thu 05:47:00 PM 59.4898 -45.5705 59° Northeast 492 566 41,000  Level FlightAware Transoceanic
Thu 05:48:00 PM 59.5602 -45.3390 59° Northeast 492 566 41,000  Level FlightAware Transoceanic
Thu 05:49:00 PM 59.6302 -45.1065 59° Northeast 492 566 41,000  Level FlightAware Transoceanic
Thu 05:50:00 PM 59.6998 -44.8730 60° Northeast 492 566 41,000  Level FlightAware Transoceanic
Thu 05:51:00 PM 59.7689 -44.6386 60° Northeast 492 566 41,000  Level FlightAware Transoceanic
Thu 05:52:00 PM 59.8377 -44.4032 60° Northeast 492 566 41,000  Level FlightAware Transoceanic
Thu 05:53:00 PM 59.9060 -44.1669 60° Northeast 492 566 41,000  Level FlightAware Transoceanic
Thu 05:54:00 PM 59.9739 -43.9295 60° Northeast 492 566 41,000  Level FlightAware Transoceanic
Thu 05:55:00 PM 60.0413 -43.6912 61° Northeast 492 566 41,000  Level FlightAware Transoceanic
Thu 05:56:00 PM 60.1084 -43.4520 61° Northeast 492 566 41,000  Level FlightAware Transoceanic
Thu 05:57:00 PM 60.1750 -43.2117 61° Northeast 492 566 41,000  Level FlightAware Transoceanic
Thu 05:58:00 PM 60.2411 -42.9705 61° Northeast 492 566 41,000  Level FlightAware Transoceanic
Thu 05:59:00 PM 60.3069 -42.7283 61° Northeast 492 566 41,000  Level FlightAware Transoceanic
Thu 06:00:00 PM 60.3722 -42.4851 62° Northeast 492 566 41,000  Level FlightAware Transoceanic
Thu 06:01:00 PM 60.4370 -42.2410 62° Northeast 492 566 41,000  Level FlightAware Transoceanic
Thu 06:02:00 PM 60.5014 -41.9959 62° Northeast 492 566 41,000  Level FlightAware Transoceanic
Thu 06:03:00 PM 60.5653 -41.7498 62° Northeast 492 566 41,000  Level FlightAware Transoceanic
Thu 06:04:00 PM 60.6288 -41.5027 62° Northeast 492 566 41,000  Level FlightAware Transoceanic
Thu 06:05:00 PM 60.6918 -41.2547 63° Northeast 492 566 41,000  Level FlightAware Transoceanic
Thu 06:06:00 PM 60.7544 -41.0057 63° Northeast 492 566 41,000  Level FlightAware Transoceanic
Thu 06:07:00 PM 60.8165 -40.7557 63° Northeast 492 566 41,000  Level FlightAware Transoceanic
Thu 06:08:00 PM 60.8781 -40.5048 63° Northeast 492 566 41,000  Level FlightAware Transoceanic
Thu 06:09:00 PM 60.9393 -40.2529 64° Northeast 492 566 41,000  Level FlightAware Transoceanic
Thu 06:10:00 PM 60.9975 -40.0105 64° Northeast  Level FlightAware Approximate
Thu 06:11:00 PM 61.0553 -39.7673 64° Northeast  Level FlightAware Approximate
Thu 06:12:00 PM 61.0542 -39.7793 63° Northeast  Level FlightAware Approximate
Thu 06:13:00 PM 61.1131 -39.5367 63° Northeast  Level FlightAware Approximate
Thu 06:14:00 PM 61.1715 -39.2933 63° Northeast  Level FlightAware Approximate
Thu 06:15:00 PM 61.2295 -39.0490 64° Northeast  Level FlightAware Approximate
Thu 06:16:00 PM 61.2871 -38.8037 64° Northeast  Level FlightAware Approximate
Thu 06:16:00 PM 61.0000 -40.0000 63° Northeast 509 586 41,000  Level ETMS Enhanced Traffic Management System
Thu 06:17:00 PM 61.3442 -38.5576 64° Northeast  Level FlightAware Approximate
Thu 06:18:00 PM 61.4009 -38.3106 64° Northeast  Level FlightAware Approximate
Thu 06:19:00 PM 61.4572 -38.0627 65° Northeast  Level FlightAware Approximate
Thu 06:20:00 PM 61.5129 -37.8139 65° Northeast  Level FlightAware Approximate
Thu 06:21:00 PM 61.5683 -37.5642 65° Northeast  Level FlightAware Approximate
Thu 06:22:00 PM 61.7460 -36.8140 65° Northeast 509 586 41,000  Level FlightAware Transoceanic
Thu 06:23:00 PM 61.8048 -36.5417 66° East 509 586 41,000  Level FlightAware Transoceanic
Thu 06:24:00 PM 61.8630 -36.2683 66° East 509 586 41,000  Level FlightAware Transoceanic
Thu 06:25:00 PM 61.9207 -35.9939 66° East 509 586 41,000  Level FlightAware Transoceanic
Thu 06:26:00 PM 61.9778 -35.7185 66° East 509 586 41,000  Level FlightAware Transoceanic
Thu 06:27:00 PM 62.0343 -35.4421 67° East 509 586 41,000  Level FlightAware Transoceanic
Thu 06:28:00 PM 62.0904 -35.1646 67° East 509 586 41,000  Level FlightAware Transoceanic
Thu 06:29:00 PM 62.1458 -34.8861 67° East 509 586 41,000  Level FlightAware Transoceanic
Thu 06:30:00 PM 62.2007 -34.6065 67° East 509 586 41,000  Level FlightAware Transoceanic
Thu 06:31:00 PM 62.2550 -34.3260 68° East 509 586 41,000  Level FlightAware Transoceanic
Thu 06:32:00 PM 62.3088 -34.0444 68° East 509 586 41,000  Level FlightAware Transoceanic
Thu 06:33:00 PM 62.3620 -33.7619 68° East 509 586 41,000  Level FlightAware Transoceanic
Thu 06:34:00 PM 62.4146 -33.4783 68° East 509 586 41,000  Level FlightAware Transoceanic
Thu 06:35:00 PM 62.4666 -33.1938 69° East 509 586 41,000  Level FlightAware Transoceanic
Thu 06:36:00 PM 62.5181 -32.9083 69° East 509 586 41,000  Level FlightAware Transoceanic
Thu 06:37:00 PM 62.5690 -32.6218 69° East 509 586 41,000  Level FlightAware Transoceanic
Thu 06:38:00 PM 62.6193 -32.3343 69° East 509 586 41,000  Level FlightAware Transoceanic
Thu 06:39:00 PM 62.6690 -32.0458 70° East 509 586 41,000  Level FlightAware Transoceanic
Thu 06:40:00 PM 62.7181 -31.7564 70° East 509 586 41,000  Level FlightAware Transoceanic
Thu 06:41:00 PM 62.7666 -31.4660 70° East 509 586 41,000  Level FlightAware Transoceanic
Thu 06:42:00 PM 62.8145 -31.1747 70° East 509 586 41,000  Level FlightAware Transoceanic
Thu 06:43:00 PM 62.8618 -30.8824 71° East 509 586 41,000  Level FlightAware Transoceanic
Thu 06:44:00 PM 62.9085 -30.5892 71° East 509 586 41,000  Level FlightAware Transoceanic
Thu 06:45:00 PM 62.9545 -30.2951 71° East 509 586 41,000  Level FlightAware Transoceanic
Thu 06:46:00 PM 62.9967 -30.0216 71° East  Level FlightAware Approximate
Thu 06:47:00 PM 63.0384 -29.7473 71° East  Level FlightAware Approximate
Thu 06:47:35 PM 63.0000 -30.0000 70° East 470 541 41,000  Level ETMS Enhanced Traffic Management System
Thu 06:48:00 PM 63.0382 -29.7713 70° East  Level FlightAware Approximate
Thu 06:49:00 PM 63.0830 -29.4991 70° East  Level FlightAware Approximate
Thu 06:50:00 PM 63.1273 -29.2260 70° East  Level FlightAware Approximate
Thu 06:51:00 PM 63.1711 -28.9521 70° East  Level FlightAware Approximate
Thu 06:52:00 PM 63.2143 -28.6774 71° East  Level FlightAware Approximate
Thu 06:53:00 PM 63.3045 -28.0810 72° East 470 541 41,000  Level FlightAware Transoceanic
Thu 06:54:00 PM 63.3458 -27.8036 72° East 470 541 41,000  Level FlightAware Transoceanic
Thu 06:55:00 PM 63.3867 -27.5254 72° East 470 541 41,000  Level FlightAware Transoceanic
Thu 06:56:00 PM 63.4269 -27.2464 72° East 470 541 41,000  Level FlightAware Transoceanic
Thu 06:57:00 PM 63.4704 -26.9694 71° East  Level FlightAware Approximate
Thu 06:58:00 PM 63.4667 -26.9667 74° East  Level FlightAware Approximate
Thu 06:59:00 PM 63.5001 -26.6825 75° East  Level FlightAware Approximate
Thu 07:00:00 PM 63.5343 -26.3984 75° East  Level FlightAware Approximate
Thu 07:01:00 PM 63.5710 -26.1156 73° East  Level FlightAware Approximate
Thu 07:02:00 PM 63.6098 -25.8337 73° East  Level FlightAware Approximate
Thu 07:03:00 PM 63.6535 -25.5553 74° East  Level FlightAware Approximate
Thu 07:04:00 PM 63.6840 -25.2677 78° East  Level FlightAware Approximate
Thu 07:05:00 PM 63.7110 -24.9779 78° East  Level FlightAware Approximate
Thu 07:06:00 PM 63.7480 -24.6937 72° East  Level FlightAware Approximate
Thu 07:07:00 PM 63.7872 -24.4104 72° East  Level FlightAware Approximate
Thu 07:08:00 PM 63.8194 -24.1224 77° East  Level FlightAware Approximate
Thu 07:09:00 PM 63.8479 -23.8319 77° East  Level FlightAware Approximate
Thu 07:10:00 PM 63.8758 -23.5409 78° East  Level FlightAware Approximate
Thu 07:11:00 PM 63.9046 -23.2501 73° East  Level FlightAware Approximate
Thu 07:12:00 PM 63.9435 -22.9650 73° East  Level FlightAware Approximate
Thu 07:13:00 PM 63.9755 -22.6751 76° East  Level FlightAware Approximate
Thu 07:14:00 PM 64.0088 -22.3858 73° East  Level FlightAware Approximate
Thu 07:15:00 PM 64.0478 -22.0997 73° East  Level FlightAware Approximate
Thu 07:16:00 PM 64.1300 -21.9406 67° East  Level Estimated
Thu 07:17:00 PM 64.1300 -21.9406 78° East  Level Estimated
Thu 07:18:00 PM 64.1300 -21.9406 78° East  Level Estimated
Thu 07:19:00 PM 64.1300 -21.9406 78° East  Level Estimated
Thu 07:20:00 PM 64.1300 -21.9406 78° East  Level Estimated
Thu 07:21:00 PM 64.1300 -21.9406 78° East  Level Estimated
Thu 07:22:00 PM 64.1300 -21.9406 78° East  Level Estimated
Thu 07:23:00 PM 64.1300 -21.9406 78° East  Level Estimated
Thu 07:24:00 PM 64.1300 -21.9406 78° East  Level Estimated
Thu 07:25:00 PM 64.1300 -21.9406 78° East  Level Estimated
Thu 07:26:00 PM 64.1300 -21.9406 78° East  Level Estimated
Thu 07:27:00 PM 64.1300 -21.9406 78° East  Level Estimated
Thu 07:28:00 PM 64.1300 -21.9406 78° East  Level Estimated
Thu 07:29:00 PM 64.1300 -21.9406 78° East  Level Estimated
Thu 07:30:00 PM 64.1300 -21.9406 78° East  Level Estimated
Thu 07:31:00 PM 64.1300 -21.9406 78° East  Level Estimated
Thu 07:32:00 PM 64.1300 -21.9406 78° East  Level Estimated
Thu 07:33:00 PM 64.1300 -21.9406 78° East  Level Estimated
Thu 07:34:00 PM 64.1300 -21.9406 78° East  Level Estimated
Thu 07:35:00 PM 64.1300 -21.9406 78° East  Level Estimated
Thu 07:36:00 PM 64.1300 -21.9406 78° East  Level Estimated
Thu 07:37:00 PM 64.1300 -21.9406 78° East  Level Estimated
Thu 07:38:00 PM 64.1300 -21.9406 78° East  Level Estimated
Thu 07:39:00 PM 64.1300 -21.9406 78° East  Level Estimated

Login

Don't have an account? Register now (free) for customized features, flight alerts, and more!